Terminal Aerodrome Forecast
Issued by NWS Mt. Holly, NJ

Home | Current Version | Previous Version | Text Only | Print | Product List | Glossary On
Versions: 1 2 3 4 5 6 7 8 9 10 11 12 13 14 15 16 17 18
000
FTUS41 KPHI 280422 AAA
TAFILG
TAF AMD
KILG 280422Z 2804/2824 19006KT P6SM SCT080
     FM280900 20004KT 5SM BR BKN015
      TEMPO 2810/2812 2SM BR
     FM281400 23008KT P6SM SCT025 BKN150
     FM281800 26010KT P6SM SCT050=

USA.gov is the U.S. government's official web portal to all federal, state and local government web resources and services.